Time;durP1;ratioP1;P1;durP2;ratioP2;P2;SDS_P1;SDS_P2;PMS_P1;PMS_P2;Temp;Humidity;BMP_temperature;BMP_pressure;BME280_temperature;BME280_humidity;BME280_pressure;Samples;Min_cycle;Max_cycle;Signal;HPM_P1;HPM_P2
2023/11/28 00:01:09;;;;;;;0.10;0.10;;;;;;;;;;5102077;27;20046;-80
2023/11/28 00:03:35;;;;;;;0.60;0.35;;;;;;;;;;5100427;27;20134;-80
2023/11/28 00:06:02;;;;;;;0.43;0.10;;;;;;;;;;5120236;27;20055;-79
2023/11/28 00:08:29;;;;;;;0.43;0.30;;;;;;;;;;5108945;27;20054;-80
2023/11/28 00:10:56;;;;;;;0.20;0.20;;;;;;;;;;5101669;27;20108;-81
2023/11/28 00:13:26;;;;;;;0.20;0.20;;;;;;;;;;5103707;27;20051;-80
2023/11/28 00:15:53;;;;;;;1.45;0.20;;;;;;;;;;5102039;28;20417;-81
2023/11/28 00:18:20;;;;;;;0.57;0.40;;;;;;;;;;5119372;27;20047;-81
2023/11/28 00:20:46;;;;;;;1.38;0.20;;;;;;;;;;5101253;28;20138;-80
2023/11/28 00:23:13;;;;;;;2.30;0.25;;;;;;;;;;5119649;27;20051;-81
2023/11/28 00:25:40;;;;;;;0.25;0.10;;;;;;;;;;5102933;27;20055;-80
2023/11/28 00:28:08;;;;;;;0.20;0.10;;;;;;;;;;5120058;27;20487;-80
2023/11/28 00:30:35;;;;;;;0.20;0.20;;;;;;;;;;5119762;27;20043;-80
2023/11/28 00:33:01;;;;;;;0.38;0.38;;;;;;;;;;5118219;27;20500;-80
2023/11/28 00:35:28;;;;;;;0.30;0.15;;;;;;;;;;5103522;27;20051;-80
2023/11/28 00:37:56;;;;;;;0.25;0.20;;;;;;;;;;5119072;27;20039;-80
2023/11/28 00:40:27;;;;;;;0.30;0.20;;;;;;;;;;5103940;27;20066;-80
2023/11/28 00:42:54;;;;;;;0.40;0.28;;;;;;;;;;5120615;27;20066;-80
2023/11/28 00:45:24;;;;;;;0.38;0.20;;;;;;;;;;5103434;27;20051;-79
2023/11/28 00:47:52;;;;;;;0.10;0.10;;;;;;;;;;5122083;27;20112;-80
2023/11/28 00:50:19;;;;;;;0.65;0.20;;;;;;;;;;5086784;27;20106;-80
2023/11/28 00:52:47;;;;;;;0.20;0.20;;;;;;;;;;5115046;27;20047;-80
2023/11/28 00:55:17;;;;;;;0.30;0.30;;;;;;;;;;5101413;27;20059;-80
2023/11/28 00:57:46;;;;;;;0.20;0.20;;;;;;;;;;5094020;28;20104;-79
2023/11/28 01:00:14;;;;;;;0.40;0.30;;;;;;;;;;5120071;27;20051;-78
2023/11/28 01:02:41;;;;;;;0.85;0.30;;;;;;;;;;5101917;27;20508;-78
2023/11/28 01:05:08;;;;;;;0.30;0.30;;;;;;;;;;5116390;27;20088;-78
2023/11/28 01:07:36;;;;;;;0.20;0.20;;;;;;;;;;5100487;27;20051;-79
2023/11/28 01:10:04;;;;;;;0.30;0.30;;;;;;;;;;5101468;27;20089;-79
2023/11/28 01:12:31;;;;;;;0.20;0.20;;;;;;;;;;5102130;27;20055;-77
2023/11/28 01:14:58;;;;;;;0.20;0.20;;;;;;;;;;5098996;28;20051;-79
2023/11/28 01:17:24;;;;;;;0.82;0.40;;;;;;;;;;5122374;27;20047;-79
2023/11/28 01:19:51;;;;;;;0.22;0.20;;;;;;;;;;5083112;28;20055;-80
2023/11/28 01:22:18;;;;;;;0.30;0.30;;;;;;;;;;5103201;27;20055;-80
2023/11/28 01:24:45;;;;;;;0.75;0.40;;;;;;;;;;5122998;27;20083;-80
2023/11/28 01:27:12;;;;;;;0.22;0.17;;;;;;;;;;5118764;27;20064;-79
2023/11/28 01:29:39;;;;;;;0.20;0.20;;;;;;;;;;5099909;27;20079;-80
2023/11/28 01:32:06;;;;;;;0.30;0.30;;;;;;;;;;5118627;27;20118;-79
2023/11/28 01:34:33;;;;;;;1.05;0.30;;;;;;;;;;5122268;27;20134;-80
2023/11/28 01:37:00;;;;;;;0.20;0.20;;;;;;;;;;5102773;28;20051;-78
2023/11/28 01:39:26;;;;;;;0.43;0.20;;;;;;;;;;5106147;27;20432;-79
2023/11/28 01:41:53;;;;;;;1.30;0.20;;;;;;;;;;5096034;28;20108;-81
2023/11/28 01:44:20;;;;;;;0.10;0.10;;;;;;;;;;5118608;27;20108;-81
2023/11/28 01:46:47;;;;;;;0.52;0.30;;;;;;;;;;5116189;28;20082;-81
2023/11/28 01:49:14;;;;;;;0.60;0.22;;;;;;;;;;5119401;28;20055;-80
2023/11/28 01:51:41;;;;;;;0.75;0.40;;;;;;;;;;5082578;28;20055;-80
2023/11/28 01:54:08;;;;;;;0.70;0.40;;;;;;;;;;5098565;28;20079;-79
2023/11/28 01:56:35;;;;;;;0.43;0.40;;;;;;;;;;5098757;28;20054;-77
2023/11/28 01:59:02;;;;;;;0.10;0.10;;;;;;;;;;5111675;28;20057;-79
2023/11/28 02:01:29;;;;;;;0.70;0.20;;;;;;;;;;5099148;28;20051;-79
2023/11/28 02:03:57;;;;;;;0.25;0.20;;;;;;;;;;5097963;28;20043;-80
2023/11/28 02:06:24;;;;;;;1.20;0.20;;;;;;;;;;5117404;28;20055;-79
2023/11/28 02:08:51;;;;;;;1.45;0.30;;;;;;;;;;5101447;28;20112;-80
2023/11/28 02:11:17;;;;;;;0.10;0.10;;;;;;;;;;5099951;28;20452;-80
2023/11/28 02:13:44;;;;;;;0.80;0.40;;;;;;;;;;5078707;28;20143;-79
2023/11/28 02:16:13;;;;;;;0.22;0.22;;;;;;;;;;5101101;28;20047;-79
2023/11/28 02:18:40;;;;;;;0.20;0.20;;;;;;;;;;5098395;28;20050;-79
2023/11/28 02:21:11;;;;;;;0.50;0.40;;;;;;;;;;5104157;28;20528;-79
2023/11/28 02:23:38;;;;;;;0.20;0.20;;;;;;;;;;5114915;28;20130;-80
2023/11/28 02:26:26;;;;;;;0.30;0.22;;;;;;;;;;5117924;28;20409;-80
2023/11/28 02:28:53;;;;;;;0.30;0.30;;;;;;;;;;5112158;28;20071;-79
2023/11/28 02:31:21;;;;;;;0.43;0.20;;;;;;;;;;5128561;28;20058;-77
2023/11/28 02:33:48;;;;;;;1.58;0.17;;;;;;;;;;5109151;28;20047;-76
2023/11/28 02:36:15;;;;;;;0.20;0.20;;;;;;;;;;5122414;28;20042;-78
2023/11/28 02:38:42;;;;;;;0.55;0.50;;;;;;;;;;5111218;27;20048;-80
2023/11/28 02:41:09;;;;;;;0.28;0.28;;;;;;;;;;5111366;28;20087;-79
2023/11/28 02:43:36;;;;;;;0.80;0.50;;;;;;;;;;5120898;27;20054;-81
2023/11/28 02:46:03;;;;;;;0.20;0.20;;;;;;;;;;5086507;28;20055;-81
2023/11/28 02:48:30;;;;;;;0.30;0.30;;;;;;;;;;5085421;27;20047;-80
2023/11/28 02:50:57;;;;;;;0.20;0.20;;;;;;;;;;5091573;27;20127;-80
2023/11/28 02:53:25;;;;;;;3.13;0.40;;;;;;;;;;5104300;27;20488;-81
2023/11/28 02:55:52;;;;;;;0.52;0.30;;;;;;;;;;5110215;27;20079;-81
2023/11/28 02:58:18;;;;;;;0.30;0.30;;;;;;;;;;5118186;27;20043;-81
2023/11/28 03:00:48;;;;;;;0.45;0.40;;;;;;;;;;5118569;27;20086;-80
2023/11/28 03:03:15;;;;;;;0.70;0.30;;;;;;;;;;5117044;27;20079;-79
2023/11/28 03:05:42;;;;;;;0.43;0.43;;;;;;;;;;5110825;27;20047;-80
2023/11/28 03:08:09;;;;;;;1.67;0.25;;;;;;;;;;5102541;27;20047;-80
2023/11/28 03:10:35;;;;;;;0.20;0.20;;;;;;;;;;5117111;27;20154;-79
2023/11/28 03:13:02;;;;;;;0.43;0.40;;;;;;;;;;5101816;27;20532;-79
2023/11/28 03:15:29;;;;;;;0.90;0.40;;;;;;;;;;5115876;27;20603;-78
2023/11/28 03:17:56;;;;;;;2.78;0.45;;;;;;;;;;5117246;27;20125;-79
2023/11/28 03:20:23;;;;;;;0.32;0.28;;;;;;;;;;5117477;27;20508;-78
2023/11/28 03:22:49;;;;;;;0.77;0.68;;;;;;;;;;5097635;28;20115;-78
2023/11/28 03:25:16;;;;;;;1.98;0.40;;;;;;;;;;5097471;27;20051;-80
2023/11/28 03:27:43;;;;;;;1.48;0.52;;;;;;;;;;5093631;27;20075;-78
2023/11/28 03:30:10;;;;;;;2.05;0.50;;;;;;;;;;5097800;28;20079;-78
2023/11/28 03:32:37;;;;;;;0.47;0.40;;;;;;;;;;5090155;27;20051;-79
2023/11/28 03:35:04;;;;;;;0.28;0.22;;;;;;;;;;5100677;27;20462;-79
2023/11/28 03:37:31;;;;;;;0.25;0.25;;;;;;;;;;5093265;27;20066;-80
2023/11/28 03:39:58;;;;;;;0.35;0.20;;;;;;;;;;5097594;28;20105;-79
2023/11/28 03:42:24;;;;;;;0.45;0.43;;;;;;;;;;5115571;27;20149;-80
2023/11/28 03:44:51;;;;;;;0.80;0.30;;;;;;;;;;5115750;27;20549;-80
2023/11/28 03:47:18;;;;;;;0.75;0.30;;;;;;;;;;5116811;27;20089;-79
2023/11/28 03:49:45;;;;;;;0.30;0.28;;;;;;;;;;5116948;27;20051;-80
2023/11/28 03:52:11;;;;;;;0.35;0.30;;;;;;;;;;5108031;27;20051;-80
2023/11/28 03:54:38;;;;;;;0.25;0.20;;;;;;;;;;5099295;27;20051;-80
2023/11/28 03:57:05;;;;;;;0.73;0.40;;;;;;;;;;5119286;27;20539;-80
2023/11/28 03:59:32;;;;;;;0.17;0.13;;;;;;;;;;5120367;27;20047;-80
2023/11/28 04:01:59;;;;;;;1.23;0.30;;;;;;;;;;5095864;27;20047;-80
2023/11/28 04:04:26;;;;;;;0.20;0.20;;;;;;;;;;5102168;27;20090;-80
2023/11/28 04:06:53;;;;;;;0.30;0.20;;;;;;;;;;5099741;28;20474;-80
2023/11/28 04:09:19;;;;;;;0.10;0.10;;;;;;;;;;5118820;27;20082;-81
2023/11/28 04:11:47;;;;;;;0.25;0.25;;;;;;;;;;5104459;28;20082;-79
2023/11/28 04:14:15;;;;;;;0.50;0.20;;;;;;;;;;5100781;27;20086;-80
2023/11/28 04:16:42;;;;;;;0.20;0.20;;;;;;;;;;5112591;27;20097;-80
2023/11/28 04:19:09;;;;;;;0.38;0.30;;;;;;;;;;5095370;28;20050;-79
2023/11/28 04:21:35;;;;;;;0.32;0.20;;;;;;;;;;5118056;27;20055;-80
2023/11/28 04:24:02;;;;;;;0.20;0.20;;;;;;;;;;5099013;28;20142;-79
2023/11/28 04:26:29;;;;;;;0.10;0.10;;;;;;;;;;5099144;27;20566;-80
2023/11/28 04:28:56;;;;;;;0.20;0.20;;;;;;;;;;5098863;28;20139;-80
2023/11/28 04:31:23;;;;;;;0.10;0.10;;;;;;;;;;5121918;27;20062;-80
2023/11/28 04:33:50;;;;;;;0.20;0.20;;;;;;;;;;5118162;27;20051;-81
2023/11/28 04:36:17;;;;;;;0.10;0.10;;;;;;;;;;5137388;27;20096;-80
2023/11/28 04:38:44;;;;;;;0.35;0.30;;;;;;;;;;5111862;27;20457;-80
2023/11/28 04:41:12;;;;;;;0.15;0.10;;;;;;;;;;5088813;28;20075;-79
2023/11/28 04:43:39;;;;;;;0.60;0.20;;;;;;;;;;5088171;27;20051;-80
2023/11/28 04:46:06;;;;;;;1.65;0.38;;;;;;;;;;5121491;27;20054;-80
2023/11/28 04:48:33;;;;;;;0.35;0.22;;;;;;;;;;5086194;27;20051;-79
2023/11/28 04:50:59;;;;;;;0.10;0.10;;;;;;;;;;5120573;27;20459;-80
2023/11/28 04:53:26;;;;;;;0.45;0.28;;;;;;;;;;5119166;27;20059;-80
2023/11/28 04:55:53;;;;;;;0.20;0.20;;;;;;;;;;5082862;28;20055;-80
2023/11/28 04:58:20;;;;;;;0.13;0.10;;;;;;;;;;5120296;27;20058;-80
2023/11/28 05:00:48;;;;;;;0.00;0.00;;;;;;;;;;5097024;28;20524;-80
2023/11/28 05:03:15;;;;;;;0.15;0.10;;;;;;;;;;5101781;27;20082;-79
2023/11/28 05:05:42;;;;;;;0.10;0.10;;;;;;;;;;5084551;27;20059;-80
2023/11/28 05:08:09;;;;;;;0.15;0.10;;;;;;;;;;5119561;27;20043;-80
2023/11/28 05:10:36;;;;;;;0.28;0.20;;;;;;;;;;5136771;27;20076;-80
2023/11/28 05:13:04;;;;;;;0.20;0.20;;;;;;;;;;5110376;27;20563;-80
2023/11/28 05:15:31;;;;;;;0.63;0.28;;;;;;;;;;5119117;27;20054;-80
2023/11/28 05:17:58;;;;;;;0.93;0.40;;;;;;;;;;5107191;27;20126;-80
2023/11/28 05:20:25;;;;;;;0.95;0.30;;;;;;;;;;5108184;27;20047;-79
2023/11/28 05:22:52;;;;;;;0.55;0.40;;;;;;;;;;5126110;27;20089;-79
2023/11/28 05:25:19;;;;;;;0.60;0.60;;;;;;;;;;5107753;27;20254;-80
2023/11/28 05:27:46;;;;;;;0.93;0.80;;;;;;;;;;5098883;28;20051;-81
2023/11/28 05:30:13;;;;;;;1.08;0.90;;;;;;;;;;5114673;27;20055;-80
2023/11/28 05:32:41;;;;;;;2.70;1.20;;;;;;;;;;5098939;27;20078;-80
2023/11/28 05:35:08;;;;;;;1.00;1.00;;;;;;;;;;5103680;27;20054;-80
2023/11/28 05:37:36;;;;;;;3.05;1.65;;;;;;;;;;5115296;27;20054;-79
2023/11/28 05:40:04;;;;;;;1.88;1.75;;;;;;;;;;5090124;27;20118;-80
2023/11/28 05:42:35;;;;;;;2.53;1.77;;;;;;;;;;5103049;27;20060;-80
2023/11/28 05:45:01;;;;;;;2.17;1.77;;;;;;;;;;5102921;27;20303;-80
2023/11/28 05:47:28;;;;;;;2.22;2.03;;;;;;;;;;5092240;28;20055;-77
2023/11/28 05:49:55;;;;;;;2.40;2.20;;;;;;;;;;5119891;27;20059;-77
2023/11/28 05:52:22;;;;;;;2.67;2.47;;;;;;;;;;5122806;27;20051;-76
2023/11/28 05:54:49;;;;;;;2.30;2.10;;;;;;;;;;5107678;28;20501;-81
2023/11/28 05:57:17;;;;;;;2.25;2.10;;;;;;;;;;5114561;28;20142;-79
2023/11/28 05:59:44;;;;;;;2.70;1.88;;;;;;;;;;5107749;28;20043;-79
2023/11/28 06:02:11;;;;;;;2.00;1.80;;;;;;;;;;5100321;28;20130;-80
2023/11/28 06:04:38;;;;;;;2.22;2.03;;;;;;;;;;5100569;28;20059;-79
2023/11/28 06:07:06;;;;;;;2.13;1.83;;;;;;;;;;5101910;28;20055;-80
2023/11/28 06:09:33;;;;;;;2.22;2.03;;;;;;;;;;5102045;28;20063;-81
2023/11/28 06:11:59;;;;;;;3.65;2.40;;;;;;;;;;5091615;27;20527;-81
2023/11/28 06:14:30;;;;;;;2.70;2.30;;;;;;;;;;5120387;27;20043;-82
2023/11/28 06:16:59;;;;;;;2.55;2.05;;;;;;;;;;5103551;27;20513;-82
2023/11/28 06:19:27;;;;;;;2.92;2.47;;;;;;;;;;5103634;27;20505;-81
2023/11/28 06:21:54;;;;;;;1.48;1.38;;;;;;;;;;5104642;27;20138;-82
2023/11/28 06:24:21;;;;;;;1.42;1.33;;;;;;;;;;5121769;27;20134;-78
2023/11/28 06:26:48;;;;;;;2.22;1.23;;;;;;;;;;5124034;27;20486;-80
2023/11/28 06:29:14;;;;;;;0.80;0.80;;;;;;;;;;5102088;28;20044;-80
2023/11/28 06:31:41;;;;;;;1.42;0.98;;;;;;;;;;5107174;27;20047;-81
2023/11/28 06:34:08;;;;;;;0.80;0.80;;;;;;;;;;5122518;27;20539;-82
2023/11/28 06:36:36;;;;;;;1.60;0.98;;;;;;;;;;5104557;27;20071;-80
2023/11/28 06:39:03;;;;;;;1.02;0.93;;;;;;;;;;5106582;27;20069;-81
2023/11/28 06:41:30;;;;;;;0.98;0.90;;;;;;;;;;5119727;27;20083;-79
2023/11/28 06:43:58;;;;;;;0.75;0.55;;;;;;;;;;5122636;27;20146;-79
2023/11/28 06:46:29;;;;;;;1.08;0.50;;;;;;;;;;5139411;27;20043;-80
2023/11/28 06:48:55;;;;;;;1.95;0.60;;;;;;;;;;5083803;28;20039;-81
2023/11/28 06:51:23;;;;;;;0.73;0.60;;;;;;;;;;5099616;27;20119;-81
2023/11/28 06:53:50;;;;;;;0.60;0.60;;;;;;;;;;5101414;28;20051;-81
2023/11/28 06:56:17;;;;;;;0.47;0.47;;;;;;;;;;5121890;27;20140;-78
2023/11/28 06:58:44;;;;;;;1.15;0.55;;;;;;;;;;5102956;27;20051;-80
2023/11/28 07:01:11;;;;;;;0.90;0.82;;;;;;;;;;5119861;27;20084;-80
2023/11/28 07:03:39;;;;;;;0.90;0.77;;;;;;;;;;5120107;27;20039;-80
2023/11/28 07:06:06;;;;;;;0.98;0.90;;;;;;;;;;5121112;27;20054;-81
2023/11/28 07:08:36;;;;;;;0.90;0.90;;;;;;;;;;5103860;27;20089;-81
2023/11/28 07:11:03;;;;;;;1.20;1.10;;;;;;;;;;5101209;28;20589;-79
2023/11/28 07:13:32;;;;;;;1.15;1.05;;;;;;;;;;5121066;27;20051;-80
2023/11/28 07:15:59;;;;;;;1.60;1.40;;;;;;;;;;5085039;28;20056;-80
2023/11/28 07:18:26;;;;;;;1.58;1.25;;;;;;;;;;5087510;27;20071;-80
2023/11/28 07:20:53;;;;;;;1.50;1.40;;;;;;;;;;5121484;27;20055;-80
2023/11/28 07:23:20;;;;;;;1.40;1.30;;;;;;;;;;5078816;27;20134;-81
2023/11/28 07:25:47;;;;;;;1.45;1.35;;;;;;;;;;5101290;28;20058;-79
2023/11/28 07:28:14;;;;;;;1.80;1.15;;;;;;;;;;5101446;28;20139;-78
2023/11/28 07:30:40;;;;;;;1.60;1.50;;;;;;;;;;5121553;27;20055;-79
2023/11/28 07:33:07;;;;;;;1.77;1.50;;;;;;;;;;5100841;28;20142;-79
2023/11/28 07:35:34;;;;;;;1.60;1.50;;;;;;;;;;5103488;27;20547;-80
2023/11/28 07:38:03;;;;;;;1.92;1.70;;;;;;;;;;5100564;28;20451;-81
2023/11/28 07:40:32;;;;;;;2.03;1.83;;;;;;;;;;5119764;27;20110;-79
2023/11/28 07:43:00;;;;;;;1.60;1.42;;;;;;;;;;5087974;27;20085;-81
2023/11/28 07:45:27;;;;;;;2.42;1.48;;;;;;;;;;5102394;27;20134;-88
2023/11/28 07:47:54;;;;;;;2.17;1.55;;;;;;;;;;5104843;28;20478;-83
2023/11/28 07:50:21;;;;;;;1.60;1.50;;;;;;;;;;5125006;27;20047;-84
2023/11/28 07:52:47;;;;;;;1.80;1.70;;;;;;;;;;5102993;28;20097;-83
2023/11/28 07:55:14;;;;;;;1.75;1.65;;;;;;;;;;5102334;27;20054;-83
2023/11/28 07:57:41;;;;;;;2.92;1.83;;;;;;;;;;5123657;27;20082;-83
2023/11/28 08:00:09;;;;;;;1.95;1.85;;;;;;;;;;5084139;28;20079;-84
2023/11/28 08:02:36;;;;;;;1.80;1.70;;;;;;;;;;5103269;27;20528;-82
2023/11/28 08:05:04;;;;;;;2.30;2.08;;;;;;;;;;5085719;28;20665;-83
2023/11/28 08:07:32;;;;;;;2.00;1.85;;;;;;;;;;5097943;27;20051;-83
2023/11/28 08:10:05;;;;;;;2.05;1.88;;;;;;;;;;5116790;27;20080;-81
2023/11/28 08:12:32;;;;;;;2.58;1.60;;;;;;;;;;5108334;27;20054;-82
2023/11/28 08:14:58;;;;;;;1.33;1.30;;;;;;;;;;5117684;27;20086;-83
2023/11/28 08:17:25;;;;;;;2.00;1.90;;;;;;;;;;5118000;27;20129;-83
2023/11/28 08:19:52;;;;;;;1.92;1.83;;;;;;;;;;5108716;27;20068;-82
2023/11/28 08:22:19;;;;;;;1.95;1.85;;;;;;;;;;5082967;27;20100;-83
2023/11/28 08:24:46;;;;;;;2.40;2.20;;;;;;;;;;5096659;27;20058;-82
2023/11/28 08:27:15;;;;;;;8.00;4.93;;;;;;;;;;5117360;27;20109;-82
2023/11/28 08:29:42;;;;;;;3.42;2.80;;;;;;;;;;5093761;27;20055;-82
2023/11/28 08:32:09;;;;;;;2.45;2.25;;;;;;;;;;5100459;27;20197;-82
2023/11/28 08:34:36;;;;;;;2.40;2.20;;;;;;;;;;5100177;27;20120;-83
2023/11/28 08:37:04;;;;;;;3.47;2.70;;;;;;;;;;5113979;27;20108;-81
2023/11/28 08:39:31;;;;;;;3.20;2.88;;;;;;;;;;5100281;27;20068;-82
2023/11/28 08:41:57;;;;;;;3.40;3.08;;;;;;;;;;5082004;28;20513;-82
2023/11/28 08:44:25;;;;;;;3.40;3.10;;;;;;;;;;5099826;27;20058;-82
2023/11/28 08:46:52;;;;;;;3.28;2.97;;;;;;;;;;5099507;27;20079;-82
2023/11/28 08:49:22;;;;;;;3.78;3.38;;;;;;;;;;5115750;27;20054;-82
2023/11/28 08:51:48;;;;;;;4.00;3.50;;;;;;;;;;5096628;28;20089;-82
2023/11/28 08:54:15;;;;;;;3.85;3.50;;;;;;;;;;5121437;27;20051;-84
2023/11/28 08:56:42;;;;;;;3.88;3.58;;;;;;;;;;5107982;27;20051;-83
2023/11/28 08:59:09;;;;;;;3.80;3.50;;;;;;;;;;5099088;28;20522;-83
2023/11/28 09:01:39;;;;;;;3.63;3.33;;;;;;;;;;5106342;27;20066;-84
2023/11/28 09:04:06;;;;;;;3.45;3.15;;;;;;;;;;5115629;28;20055;-81
2023/11/28 09:06:34;;;;;;;3.67;3.10;;;;;;;;;;5105567;27;20134;-81
2023/11/28 09:09:00;;;;;;;2.47;2.25;;;;;;;;;;5126852;27;20039;-87
2023/11/28 09:11:28;;;;;;;2.42;2.20;;;;;;;;;;5126767;27;20053;-85
2023/11/28 09:13:55;;;;;;;3.55;2.10;;;;;;;;;;5105237;28;20047;-86
2023/11/28 09:16:22;;;;;;;2.38;2.17;;;;;;;;;;5141923;27;20038;-79
2023/11/28 09:18:48;;;;;;;2.58;2.38;;;;;;;;;;5102029;27;20169;-79
2023/11/28 09:21:21;;;;;;;2.25;2.00;;;;;;;;;;5098484;27;20047;-82
2023/11/28 09:23:48;;;;;;;2.47;2.28;;;;;;;;;;5097505;28;20118;-83
2023/11/28 09:26:15;;;;;;;2.47;2.28;;;;;;;;;;5111463;27;21323;-82
2023/11/28 09:28:42;;;;;;;1.95;1.85;;;;;;;;;;5083310;27;20150;-84
2023/11/28 09:31:09;;;;;;;2.03;1.83;;;;;;;;;;5066068;27;20070;-82
2023/11/28 09:33:36;;;;;;;4.10;1.65;;;;;;;;;;5093624;27;20050;-83
2023/11/28 09:36:03;;;;;;;4.97;2.65;;;;;;;;;;5104437;28;20051;-83
2023/11/28 09:38:31;;;;;;;2.55;2.30;;;;;;;;;;5082524;27;20047;-84
2023/11/28 09:40:58;;;;;;;1.75;1.65;;;;;;;;;;5073896;28;20080;-83
2023/11/28 09:43:26;;;;;;;1.70;1.60;;;;;;;;;;5070652;28;20127;-83
2023/11/28 09:45:56;;;;;;;2.25;2.05;;;;;;;;;;5078310;27;20052;-83
2023/11/28 09:48:24;;;;;;;2.63;1.65;;;;;;;;;;5080722;28;20058;-84
2023/11/28 09:50:51;;;;;;;1.50;1.40;;;;;;;;;;5078422;27;20050;-83
2023/11/28 09:53:20;;;;;;;1.67;1.58;;;;;;;;;;5098083;28;20083;-84
2023/11/28 09:55:47;;;;;;;1.60;1.50;;;;;;;;;;5099759;28;20047;-84
2023/11/28 09:58:14;;;;;;;2.15;1.48;;;;;;;;;;5096599;28;20055;-85
2023/11/28 10:00:43;;;;;;;1.20;1.10;;;;;;;;;;5094274;28;20099;-84
2023/11/28 10:03:11;;;;;;;1.35;1.25;;;;;;;;;;5093553;28;20070;-83
2023/11/28 10:05:38;;;;;;;1.52;1.42;;;;;;;;;;5082382;28;20516;-83
2023/11/28 10:08:05;;;;;;;1.90;1.75;;;;;;;;;;5106988;28;20107;-83
2023/11/28 10:10:36;;;;;;;3.05;2.10;;;;;;;;;;5079049;28;20050;-83
2023/11/28 10:13:03;;;;;;;3.40;2.15;;;;;;;;;;5092465;28;20056;-84
2023/11/28 10:15:30;;;;;;;2.67;2.00;;;;;;;;;;5088232;28;20053;-84
2023/11/28 10:17:57;;;;;;;1.70;1.60;;;;;;;;;;5087421;28;20130;-84
2023/11/28 10:20:27;;;;;;;1.65;1.55;;;;;;;;;;5104946;28;20042;-83
2023/11/28 10:22:54;;;;;;;1.48;1.38;;;;;;;;;;5078143;28;20048;-84
2023/11/28 10:25:23;;;;;;;1.63;1.52;;;;;;;;;;5106237;28;20062;-83
2023/11/28 10:27:50;;;;;;;1.98;1.70;;;;;;;;;;5079284;28;20072;-83
2023/11/28 10:30:21;;;;;;;1.50;1.40;;;;;;;;;;5092107;28;20103;-84
2023/11/28 10:32:51;;;;;;;1.80;1.70;;;;;;;;;;5106727;28;20067;-84
2023/11/28 10:35:18;;;;;;;2.00;1.83;;;;;;;;;;5104418;28;20512;-84
2023/11/28 10:37:45;;;;;;;1.80;1.70;;;;;;;;;;5087000;28;20047;-84
2023/11/28 10:40:17;;;;;;;2.85;1.73;;;;;;;;;;5097044;28;20051;-83
2023/11/28 10:42:44;;;;;;;1.70;1.60;;;;;;;;;;5093877;28;20079;-83
2023/11/28 10:45:13;;;;;;;1.60;1.40;;;;;;;;;;5076577;28;20130;-83
2023/11/28 10:47:41;;;;;;;1.85;1.73;;;;;;;;;;5086968;28;20477;-82
2023/11/28 10:50:09;;;;;;;1.75;1.65;;;;;;;;;;5074717;28;20063;-83
2023/11/28 10:52:37;;;;;;;2.00;1.83;;;;;;;;;;5079048;28;20044;-82
2023/11/28 10:55:09;;;;;;;2.35;2.13;;;;;;;;;;5102015;28;20062;-83
2023/11/28 10:57:49;;;;;;;2.05;1.77;;;;;;;;;;5096627;28;20116;-83
2023/11/28 11:00:22;;;;;;;2.05;1.85;;;;;;;;;;5109741;27;20055;-83
2023/11/28 11:02:48;;;;;;;1.98;1.83;;;;;;;;;;5094554;27;20085;-83
2023/11/28 11:05:15;;;;;;;2.17;1.95;;;;;;;;;;5076705;27;20473;-83
2023/11/28 11:07:43;;;;;;;3.15;2.05;;;;;;;;;;5112093;27;20047;-84
2023/11/28 11:10:10;;;;;;;2.22;1.60;;;;;;;;;;5101551;27;20051;-84
2023/11/28 11:12:38;;;;;;;1.90;1.80;;;;;;;;;;5091203;27;20043;-83
2023/11/28 11:15:25;;;;;;;2.35;2.15;;;;;;;;;;5105057;28;20517;-83
2023/11/28 11:18:06;;;;;;;2.53;2.33;;;;;;;;;;5114742;27;20734;-86
2023/11/28 11:20:33;;;;;;;2.42;2.28;;;;;;;;;;5107528;27;20042;-83
2023/11/28 11:23:01;;;;;;;2.25;2.05;;;;;;;;;;5075531;27;20571;-84
2023/11/28 11:25:39;;;;;;;2.63;2.33;;;;;;;;;;5094809;27;20048;-83
2023/11/28 11:28:08;;;;;;;2.35;2.15;;;;;;;;;;5079903;27;20139;-83
2023/11/28 11:30:38;;;;;;;2.85;2.30;;;;;;;;;;5096670;27;20056;-81
2023/11/28 11:33:07;;;;;;;2.40;2.20;;;;;;;;;;5111621;27;20051;-81
2023/11/28 11:36:10;;;;;;;2.45;2.28;;;;;;;;;;5108325;27;20075;-82
2023/11/28 11:38:37;;;;;;;2.15;2.00;;;;;;;;;;5112096;27;20051;-83
2023/11/28 11:41:08;;;;;;;2.28;2.10;;;;;;;;;;5099867;27;20098;-83
2023/11/28 11:43:41;;;;;;;2.50;2.30;;;;;;;;;;5098210;27;20061;-83
2023/11/28 11:46:13;;;;;;;2.53;2.30;;;;;;;;;;5101024;27;20047;-82
2023/11/28 11:48:41;;;;;;;2.60;2.40;;;;;;;;;;5105337;27;20440;-83
2023/11/28 11:51:09;;;;;;;2.72;2.53;;;;;;;;;;5089547;27;20493;-82
2023/11/28 11:53:41;;;;;;;4.07;2.50;;;;;;;;;;5077465;27;20151;-83
2023/11/28 11:56:09;;;;;;;2.75;2.47;;;;;;;;;;5096722;27;20420;-83
2023/11/28 11:58:36;;;;;;;3.58;2.65;;;;;;;;;;5095993;27;20048;-84
2023/11/28 12:01:04;;;;;;;4.40;3.35;;;;;;;;;;5107085;27;20044;-81
2023/11/28 12:03:31;;;;;;;3.00;2.80;;;;;;;;;;5087433;27;20058;-82
2023/11/28 12:05:59;;;;;;;2.70;2.47;;;;;;;;;;5097045;27;20331;-81
2023/11/28 12:08:26;;;;;;;2.80;2.60;;;;;;;;;;5106142;27;20087;-81
2023/11/28 12:11:06;;;;;;;2.53;2.33;;;;;;;;;;5085689;28;20096;-81
2023/11/28 12:13:33;;;;;;;4.03;3.05;;;;;;;;;;5091517;27;20054;-81
2023/11/28 12:16:02;;;;;;;3.17;2.58;;;;;;;;;;5103463;27;20134;-81
2023/11/28 12:18:29;;;;;;;2.92;2.70;;;;;;;;;;5084528;27;20544;-81
2023/11/28 12:20:56;;;;;;;3.15;2.70;;;;;;;;;;5123960;27;20051;-81
2023/11/28 12:23:24;;;;;;;3.42;3.08;;;;;;;;;;5105651;27;20051;-82
2023/11/28 12:25:53;;;;;;;2.75;2.50;;;;;;;;;;5090798;27;20077;-80
2023/11/28 12:28:22;;;;;;;2.78;2.50;;;;;;;;;;5109157;27;20484;-82
2023/11/28 12:30:49;;;;;;;2.35;2.15;;;;;;;;;;5112468;27;20130;-82
2023/11/28 12:33:16;;;;;;;2.40;2.20;;;;;;;;;;5089944;27;20078;-82
2023/11/28 12:35:49;;;;;;;2.60;2.40;;;;;;;;;;5097869;27;20058;-82
2023/11/28 12:38:17;;;;;;;2.97;2.67;;;;;;;;;;5082363;28;20078;-82
2023/11/28 12:40:50;;;;;;;3.08;2.55;;;;;;;;;;5108737;28;20131;-82
2023/11/28 12:43:29;;;;;;;2.75;2.55;;;;;;;;;;5114196;27;20552;-81
2023/11/28 12:45:57;;;;;;;3.35;2.78;;;;;;;;;;5100966;27;20065;-81
2023/11/28 12:48:25;;;;;;;3.95;2.72;;;;;;;;;;5112889;27;20038;-84
2023/11/28 12:50:53;;;;;;;3.25;2.95;;;;;;;;;;5115910;28;20062;-84
2023/11/28 12:53:21;;;;;;;3.80;2.90;;;;;;;;;;5121405;27;20040;-84
2023/11/28 12:55:49;;;;;;;4.35;3.42;;;;;;;;;;5088138;27;20449;-82
2023/11/28 12:58:22;;;;;;;4.60;3.63;;;;;;;;;;5078042;28;20241;-82
2023/11/28 13:00:49;;;;;;;;;;;;;;;;;;5109249;27;20052;-82
2023/11/28 13:03:16;;;;;;;3.88;3.47;;;;;;;;;;5088817;28;19923;-82
2023/11/28 13:05:43;;;;;;;4.00;3.60;;;;;;;;;;5092970;27;20077;-81
2023/11/28 13:08:10;;;;;;;4.43;4.03;;;;;;;;;;5099088;27;20066;-82
2023/11/28 13:10:37;;;;;;;4.18;3.72;;;;;;;;;;5091774;27;20043;-81
2023/11/28 13:13:04;;;;;;;4.45;3.83;;;;;;;;;;5090912;28;20134;-81
2023/11/28 13:15:42;;;;;;;4.45;4.00;;;;;;;;;;5098555;27;20506;-81
2023/11/28 13:18:09;;;;;;;4.90;4.40;;;;;;;;;;5074137;27;20134;-81
2023/11/28 13:20:36;;;;;;;5.10;4.45;;;;;;;;;;5094635;28;20101;-82
2023/11/28 13:23:03;;;;;;;6.78;4.78;;;;;;;;;;5106798;27;20086;-80
2023/11/28 13:25:30;;;;;;;4.60;4.18;;;;;;;;;;5106467;27;20083;-82
2023/11/28 13:27:57;;;;;;;5.25;4.75;;;;;;;;;;5092933;27;20094;-81
2023/11/28 13:30:25;;;;;;;4.90;4.28;;;;;;;;;;5105324;27;20114;-81
2023/11/28 13:32:55;;;;;;;5.47;4.10;;;;;;;;;;5110867;27;20609;-81
2023/11/28 13:35:22;;;;;;;4.57;4.18;;;;;;;;;;5105294;27;20050;-80
2023/11/28 13:37:49;;;;;;;5.32;4.78;;;;;;;;;;5109522;27;20123;-81
2023/11/28 13:40:15;;;;;;;5.15;4.65;;;;;;;;;;5100852;27;20579;-81
2023/11/28 13:42:44;;;;;;;4.43;4.03;;;;;;;;;;5107916;27;20050;-81
2023/11/28 13:45:11;;;;;;;5.95;4.90;;;;;;;;;;5096135;27;20039;-82
2023/11/28 13:47:38;;;;;;;5.07;4.60;;;;;;;;;;5106536;27;20059;-81
2023/11/28 13:50:09;;;;;;;5.20;4.70;;;;;;;;;;5094780;27;20047;-81
2023/11/28 13:52:36;;;;;;;5.55;5.03;;;;;;;;;;5081042;28;20055;-81
2023/11/28 13:55:04;;;;;;;6.25;5.50;;;;;;;;;;5081601;27;20047;-81
2023/11/28 13:57:31;;;;;;;5.63;5.03;;;;;;;;;;5096243;27;20070;-81
2023/11/28 13:59:58;;;;;;;5.85;5.18;;;;;;;;;;5104703;28;20529;-80
2023/11/28 14:02:25;;;;;;;5.40;4.90;;;;;;;;;;5106215;28;20056;-81
2023/11/28 14:05:09;;;;;;;6.22;5.20;;;;;;;;;;5105925;28;20505;-80
2023/11/28 14:07:41;;;;;;;5.30;4.80;;;;;;;;;;5104395;28;20079;-81
2023/11/28 14:10:08;;;;;;;7.03;5.18;;;;;;;;;;5077687;28;20087;-80
2023/11/28 14:12:40;;;;;;;5.40;4.90;;;;;;;;;;5098675;28;20527;-81
2023/11/28 14:15:07;;;;;;;5.80;5.25;;;;;;;;;;5083339;28;20131;-79
2023/11/28 14:17:39;;;;;;;5.30;4.80;;;;;;;;;;5078449;28;20054;-83
2023/11/28 14:20:08;;;;;;;5.20;4.68;;;;;;;;;;5079428;28;20505;-81
2023/11/28 14:22:36;;;;;;;5.75;5.25;;;;;;;;;;5113472;28;20050;-82
2023/11/28 14:25:03;;;;;;;5.82;5.15;;;;;;;;;;5111822;28;20808;-82
2023/11/28 14:27:30;;;;;;;5.40;4.90;;;;;;;;;;5113681;28;20138;-81
2023/11/28 14:29:57;;;;;;;5.57;5.00;;;;;;;;;;5112592;28;20081;-83
2023/11/28 14:32:24;;;;;;;6.07;5.50;;;;;;;;;;5101790;27;20101;-84
2023/11/28 14:34:51;;;;;;;6.10;5.32;;;;;;;;;;5102698;27;20075;-84
2023/11/28 14:37:18;;;;;;;6.07;5.47;;;;;;;;;;5117646;27;20058;-83
2023/11/28 14:39:46;;;;;;;6.20;4.75;;;;;;;;;;5102431;27;20133;-82
2023/11/28 14:42:13;;;;;;;7.75;5.75;;;;;;;;;;5112131;27;20051;-81
2023/11/28 14:44:40;;;;;;;5.82;5.22;;;;;;;;;;5104291;27;20047;-80
2023/11/28 14:47:07;;;;;;;8.43;5.75;;;;;;;;;;5108133;27;20059;-81